Startpagina
METAR-TAF:

METAR-TAF

Vliegvelden :

Hoedspruit, Zuid-Afrika

breedte: 24-21-17S, lengte: 31-03-01E, hoogte: 531 m

Actueel weer

Dit bericht is 1 uur en het 39 minuten geleden gemaakt, om 08:00 UTC
Wind 7 kt uit het noorden
Temperatuur 25°C
Vochtigheid 34%
Druk 1023 hPa

METAR: FAHS 190800Z AUTO 35007KT //// // ////// 25/08 Q1023

Tijdstip: 11:39 (09:39 UTC)

Verwachting

Dit bericht is 2 uur en het 19 minuten geleden gemaakt, om 07:20 UTC
Verwachting geldig van 19 om 07 UTC tot 19 om 18 UTC
Wind 8 kt uit het noorden
Zicht 10 km of meer
geen wolken onder 1500 m en geen cumulonimbus

TAF: FAHS 190720Z 1907/1918 35008KT CAVOK TX31/1913Z TN20/1918Z

Waarnemingen en weersverwachtingen van meer dan 4000 vliegvelden (METAR en TAF).

De beschikbare stations zijn de gele en rode punten op de kaart.

Ga met uw muis naar het station om de naam te zien.

Klik dan om waarnemingen en weersverwachtingen te zien.

kaart wijzigen: klik op de groene knoppen met een zwart kruis om in te zoomen, op de groene knop met een streepje om uit te zoomen of op de groene pijlen voor aangrenzende kaarten.


METAR-TAF: